sensor_id;sensor_type;location;lat;lon;timestamp;pressure;altitude;pressure_sealevel;temperature;humidity
3917;BME280;1973;50.518;7.318;2023-03-19T00:00:25;100521.44;;;11.71;100.00
3917;BME280;1973;50.518;7.318;2023-03-19T00:02:52;100522.94;;;11.67;100.00
3917;BME280;1973;50.518;7.318;2023-03-19T00:05:18;100521.47;;;11.64;100.00
3917;BME280;1973;50.518;7.318;2023-03-19T00:07:45;100529.53;;;11.66;100.00
3917;BME280;1973;50.518;7.318;2023-03-19T00:10:12;100525.53;;;11.62;100.00
3917;BME280;1973;50.518;7.318;2023-03-19T00:12:38;100524.47;;;11.63;100.00
3917;BME280;1973;50.518;7.318;2023-03-19T00:15:05;100533.81;;;11.62;100.00
3917;BME280;1973;50.518;7.318;2023-03-19T00:17:34;100525.31;;;11.63;100.00
3917;BME280;1973;50.518;7.318;2023-03-19T00:20:01;100521.47;;;11.64;100.00
3917;BME280;1973;50.518;7.318;2023-03-19T00:22:27;100526.16;;;11.64;100.00
3917;BME280;1973;50.518;7.318;2023-03-19T00:24:53;100522.31;;;11.65;100.00
3917;BME280;1973;50.518;7.318;2023-03-19T00:27:20;100524.47;;;11.63;100.00
3917;BME280;1973;50.518;7.318;2023-03-19T00:29:46;100520.88;;;11.62;100.00
3917;BME280;1973;50.518;7.318;2023-03-19T00:32:13;100527.44;;;11.61;100.00
3917;BME280;1973;50.518;7.318;2023-03-19T00:34:40;100535.13;;;11.59;100.00
3917;BME280;1973;50.518;7.318;2023-03-19T00:37:07;100524.09;;;11.59;100.00
3917;BME280;1973;50.518;7.318;2023-03-19T00:39:34;100540.63;;;11.59;100.00
3917;BME280;1973;50.518;7.318;2023-03-19T00:42:00;100534.28;;;11.59;100.00
3917;BME280;1973;50.518;7.318;2023-03-19T00:44:27;100535.34;;;11.58;100.00
3917;BME280;1973;50.518;7.318;2023-03-19T00:46:53;100539.78;;;11.59;100.00
3917;BME280;1973;50.518;7.318;2023-03-19T00:49:20;100535.13;;;11.59;100.00
3917;BME280;1973;50.518;7.318;2023-03-19T00:51:46;100530.47;;;11.60;100.00
3917;BME280;1973;50.518;7.318;2023-03-19T00:54:13;100535.13;;;11.59;100.00
3917;BME280;1973;50.518;7.318;2023-03-19T00:56:39;100534.28;;;11.59;100.00
3917;BME280;1973;50.518;7.318;2023-03-19T00:59:06;100532.59;;;11.58;100.00
3917;BME280;1973;50.518;7.318;2023-03-19T01:01:33;100532.19;;;11.54;100.00
3917;BME280;1973;50.518;7.318;2023-03-19T01:03:59;100530.13;;;11.50;100.00
3917;BME280;1973;50.518;7.318;2023-03-19T01:06:26;100530.56;;;11.47;100.00
3917;BME280;1973;50.518;7.318;2023-03-19T01:08:53;100529.72;;;11.46;100.00
3917;BME280;1973;50.518;7.318;2023-03-19T01:11:19;100536.09;;;11.47;100.00
3917;BME280;1973;50.518;7.318;2023-03-19T01:13:46;100546.06;;;11.48;100.00
3917;BME280;1973;50.518;7.318;2023-03-19T01:16:13;100533.59;;;11.45;100.00
3917;BME280;1973;50.518;7.318;2023-03-19T01:18:39;100534.41;;;11.46;100.00
3917;BME280;1973;50.518;7.318;2023-03-19T01:21:06;100532.75;;;11.45;100.00
3917;BME280;1973;50.518;7.318;2023-03-19T01:23:33;100525.53;;;11.44;100.00
3917;BME280;1973;50.518;7.318;2023-03-19T01:26:00;100533.78;;;11.44;100.00
3917;BME280;1973;50.518;7.318;2023-03-19T01:28:26;100523.00;;;11.42;100.00
3917;BME280;1973;50.518;7.318;2023-03-19T01:30:57;100522.19;;;11.42;100.00
3917;BME280;1973;50.518;7.318;2023-03-19T01:33:25;100526.00;;;11.41;100.00
3917;BME280;1973;50.518;7.318;2023-03-19T01:35:51;100515.19;;;11.39;100.00
3917;BME280;1973;50.518;7.318;2023-03-19T01:38:18;100515.44;;;11.38;100.00
3917;BME280;1973;50.518;7.318;2023-03-19T01:40:46;100519.25;;;11.37;100.00
3917;BME280;1973;50.518;7.318;2023-03-19T01:43:22;100535.78;;;11.37;100.00
3917;BME280;1973;50.518;7.318;2023-03-19T01:45:50;100532.19;;;11.36;100.00
3917;BME280;1973;50.518;7.318;2023-03-19T01:48:24;100539.59;;;11.36;100.00
3917;BME280;1973;50.518;7.318;2023-03-19T01:50:53;100538.75;;;11.35;100.00
3917;BME280;1973;50.518;7.318;2023-03-19T01:53:24;100537.91;;;11.35;100.00
3917;BME280;1973;50.518;7.318;2023-03-19T01:55:54;100537.91;;;11.35;100.00
3917;BME280;1973;50.518;7.318;2023-03-19T01:58:22;100543.41;;;11.35;100.00
3917;BME280;1973;50.518;7.318;2023-03-19T02:00:51;100537.09;;;11.34;100.00
3917;BME280;1973;50.518;7.318;2023-03-19T02:03:18;100547.72;;;11.31;100.00
3917;BME280;1973;50.518;7.318;2023-03-19T02:05:46;100543.50;;;11.28;100.00
3917;BME280;1973;50.518;7.318;2023-03-19T02:08:16;100546.91;;;11.23;100.00
3917;BME280;1973;50.518;7.318;2023-03-19T02:10:44;100545.91;;;11.18;100.00
3917;BME280;1973;50.518;7.318;2023-03-19T02:13:11;100544.09;;;11.12;100.00
3917;BME280;1973;50.518;7.318;2023-03-19T02:15:38;100544.75;;;11.07;100.00
3917;BME280;1973;50.518;7.318;2023-03-19T02:18:06;100543.50;;;11.03;100.00
3917;BME280;1973;50.518;7.318;2023-03-19T02:26:14;100545.16;;;10.86;100.00
3917;BME280;1973;50.518;7.318;2023-03-19T02:28:43;100549.41;;;10.82;100.00
3917;BME280;1973;50.518;7.318;2023-03-19T02:31:11;100547.06;;;10.79;100.00
3917;BME280;1973;50.518;7.318;2023-03-19T02:33:38;100552.44;;;10.74;100.00
3917;BME280;1973;50.518;7.318;2023-03-19T02:36:11;100551.78;;;10.72;100.00
3917;BME280;1973;50.518;7.318;2023-03-19T02:38:39;100543.97;;;10.69;100.00
3917;BME280;1973;50.518;7.318;2023-03-19T02:41:08;100551.63;;;10.67;100.00
3917;BME280;1973;50.518;7.318;2023-03-19T02:43:37;100542.75;;;10.65;100.00
3917;BME280;1973;50.518;7.318;2023-03-19T02:46:07;100549.53;;;10.62;100.00
3917;BME280;1973;50.518;7.318;2023-03-19T02:48:33;100543.63;;;10.59;100.00
3917;BME280;1973;50.518;7.318;2023-03-19T02:51:00;100545.75;;;10.57;100.00
3917;BME280;1973;50.518;7.318;2023-03-19T02:53:26;100548.94;;;10.54;100.00
3917;BME280;1973;50.518;7.318;2023-03-19T02:55:53;100547.91;;;10.55;100.00
3917;BME280;1973;50.518;7.318;2023-03-19T02:58:19;100550.66;;;10.55;100.00
3917;BME280;1973;50.518;7.318;2023-03-19T03:00:46;100544.53;;;10.53;100.00
3917;BME280;1973;50.518;7.318;2023-03-19T03:03:13;100550.03;;;10.53;100.00
3917;BME280;1973;50.518;7.318;2023-03-19T03:05:39;100544.53;;;10.53;100.00
3917;BME280;1973;50.518;7.318;2023-03-19T03:08:05;100540.28;;;10.50;100.00
3917;BME280;1973;50.518;7.318;2023-03-19T03:10:32;100544.94;;;10.50;100.00
3917;BME280;1973;50.518;7.318;2023-03-19T03:12:59;100545.41;;;10.47;100.00
3917;BME280;1973;50.518;7.318;2023-03-19T03:15:26;100546.06;;;10.42;100.00
3917;BME280;1973;50.518;7.318;2023-03-19T03:17:53;100537.19;;;10.40;100.00
3917;BME280;1973;50.518;7.318;2023-03-19T03:20:22;100532.53;;;10.41;100.00
3917;BME280;1973;50.518;7.318;2023-03-19T03:22:48;100533.16;;;10.43;100.00
3917;BME280;1973;50.518;7.318;2023-03-19T03:25:15;100534.84;;;10.44;100.00
3917;BME280;1973;50.518;7.318;2023-03-19T03:27:42;100540.13;;;10.45;100.00
3917;BME280;1973;50.518;7.318;2023-03-19T03:30:09;100543.09;;;10.44;100.00
3917;BME280;1973;50.518;7.318;2023-03-19T03:32:37;100549.66;;;10.43;100.00
3917;BME280;1973;50.518;7.318;2023-03-19T03:35:05;100557.31;;;10.41;100.00
3917;BME280;1973;50.518;7.318;2023-03-19T03:37:32;100555.00;;;10.38;100.00
3917;BME280;1973;50.518;7.318;2023-03-19T03:39:58;100553.91;;;10.39;100.00
3917;BME280;1973;50.518;7.318;2023-03-19T03:42:25;100557.75;;;10.38;100.00
3917;BME280;1973;50.518;7.318;2023-03-19T03:44:52;100563.25;;;10.38;100.00
3917;BME280;1973;50.518;7.318;2023-03-19T03:47:18;100564.31;;;10.37;100.00
3917;BME280;1973;50.518;7.318;2023-03-19T03:49:45;100568.97;;;10.36;100.00
3917;BME280;1973;50.518;7.318;2023-03-19T03:52:11;100580.22;;;10.35;100.00
3917;BME280;1973;50.518;7.318;2023-03-19T03:54:38;100572.56;;;10.37;100.00
3917;BME280;1973;50.518;7.318;2023-03-19T03:57:04;100578.06;;;10.37;100.00
3917;BME280;1973;50.518;7.318;2023-03-19T03:59:31;100576.38;;;10.36;100.00
3917;BME280;1973;50.518;7.318;2023-03-19T04:01:58;100573.00;;;10.34;100.00
3917;BME280;1973;50.518;7.318;2023-03-19T04:04:24;100575.53;;;10.35;100.00
3917;BME280;1973;50.518;7.318;2023-03-19T04:06:51;100582.50;;;10.38;100.00
3917;BME280;1973;50.518;7.318;2023-03-19T04:09:18;100577.63;;;10.40;100.00
3917;BME280;1973;50.518;7.318;2023-03-19T04:11:44;100578.47;;;10.40;100.00
3917;BME280;1973;50.518;7.318;2023-03-19T04:14:11;100576.31;;;10.42;100.00
3917;BME280;1973;50.518;7.318;2023-03-19T04:16:37;100571.47;;;10.44;100.00
3917;BME280;1973;50.518;7.318;2023-03-19T04:19:04;100569.97;;;10.48;100.00
3917;BME280;1973;50.518;7.318;2023-03-19T04:21:32;100565.72;;;10.46;100.00
3917;BME280;1973;50.518;7.318;2023-03-19T04:23:59;100564.06;;;10.45;100.00
3917;BME280;1973;50.518;7.318;2023-03-19T04:26:25;100568.72;;;10.44;100.00
3917;BME280;1973;50.518;7.318;2023-03-19T04:28:52;100566.41;;;10.41;100.00
3917;BME280;1973;50.518;7.318;2023-03-19T04:31:18;100571.66;;;10.43;100.00
3917;BME280;1973;50.518;7.318;2023-03-19T04:33:45;100567.25;;;10.42;100.00
3917;BME280;1973;50.518;7.318;2023-03-19T04:36:11;100570.81;;;10.42;100.00
3917;BME280;1973;50.518;7.318;2023-03-19T04:38:38;100567.00;;;10.43;100.00
3917;BME280;1973;50.518;7.318;2023-03-19T04:41:04;100573.38;;;10.44;100.00
3917;BME280;1973;50.518;7.318;2023-03-19T04:43:31;100576.13;;;10.44;100.00
3917;BME280;1973;50.518;7.318;2023-03-19T04:45:58;100581.41;;;10.45;100.00
3917;BME280;1973;50.518;7.318;2023-03-19T04:48:24;100588.59;;;10.46;100.00
3917;BME280;1973;50.518;7.318;2023-03-19T04:50:51;100581.19;;;10.47;100.00
3917;BME280;1973;50.518;7.318;2023-03-19T04:53:22;100592.81;;;10.49;100.00
3917;BME280;1973;50.518;7.318;2023-03-19T04:55:49;100589.00;;;10.50;100.00
3917;BME280;1973;50.518;7.318;2023-03-19T04:58:16;100593.69;;;10.49;100.00
3917;BME280;1973;50.518;7.318;2023-03-19T05:00:43;100593.69;;;10.49;100.00
3917;BME280;1973;50.518;7.318;2023-03-19T05:03:15;100595.75;;;10.54;100.00
3917;BME280;1973;50.518;7.318;2023-03-19T05:05:42;100600.41;;;10.53;100.00
3917;BME280;1973;50.518;7.318;2023-03-19T05:08:09;100591.50;;;10.58;100.00
3917;BME280;1973;50.518;7.318;2023-03-19T05:10:36;100601.44;;;10.59;100.00
3917;BME280;1973;50.518;7.318;2023-03-19T05:13:03;100605.03;;;10.59;100.00
3917;BME280;1973;50.518;7.318;2023-03-19T05:15:29;100605.91;;;10.60;100.00
3917;BME280;1973;50.518;7.318;2023-03-19T05:17:56;100605.03;;;10.59;100.00
3917;BME280;1973;50.518;7.318;2023-03-19T05:20:23;100613.06;;;10.61;100.00
3917;BME280;1973;50.518;7.318;2023-03-19T05:22:51;100619.41;;;10.61;100.00
3917;BME280;1973;50.518;7.318;2023-03-19T05:25:18;100609.50;;;10.60;100.00
3917;BME280;1973;50.518;7.318;2023-03-19T05:27:44;100605.91;;;10.60;100.00
3917;BME280;1973;50.518;7.318;2023-03-19T05:30:11;100597.41;;;10.61;100.00
3917;BME280;1973;50.518;7.318;2023-03-19T05:32:38;100603.13;;;10.60;100.00
3917;BME280;1973;50.518;7.318;2023-03-19T05:35:06;100604.00;;;10.60;100.00
3917;BME280;1973;50.518;7.318;2023-03-19T05:37:32;100609.25;;;10.62;100.00
3917;BME280;1973;50.518;7.318;2023-03-19T05:39:59;100611.81;;;10.63;100.00
3917;BME280;1973;50.518;7.318;2023-03-19T05:42:25;100614.31;;;10.65;100.00
3917;BME280;1973;50.518;7.318;2023-03-19T05:44:52;100624.47;;;10.64;100.00
3917;BME280;1973;50.518;7.318;2023-03-19T05:47:19;100621.31;;;10.67;100.00
3917;BME280;1973;50.518;7.318;2023-03-19T05:49:45;100634.00;;;10.68;100.00
3917;BME280;1973;50.518;7.318;2023-03-19T05:52:11;100628.72;;;10.67;100.00
3917;BME280;1973;50.518;7.318;2023-03-19T05:54:38;100633.59;;;10.65;100.00
3917;BME280;1973;50.518;7.318;2023-03-19T05:57:05;100634.03;;;10.62;100.00
3917;BME280;1973;50.518;7.318;2023-03-19T05:59:32;100643.59;;;10.59;100.00
3917;BME280;1973;50.518;7.318;2023-03-19T06:01:58;100624.06;;;10.61;100.00
3917;BME280;1973;50.518;7.318;2023-03-19T06:04:25;100623.25;;;10.60;100.00
3917;BME280;1973;50.518;7.318;2023-03-19T06:06:51;100629.81;;;10.59;100.00
3917;BME280;1973;50.518;7.318;2023-03-19T06:09:18;100631.72;;;10.59;100.00
3917;BME280;1973;50.518;7.318;2023-03-19T06:11:45;100625.78;;;10.62;100.00
3917;BME280;1973;50.518;7.318;2023-03-19T06:14:11;100635.50;;;10.64;100.00
3917;BME280;1973;50.518;7.318;2023-03-19T06:16:38;100646.28;;;10.66;100.00
3917;BME280;1973;50.518;7.318;2023-03-19T06:19:04;100638.03;;;10.66;100.00
3917;BME280;1973;50.518;7.318;2023-03-19T06:21:31;100631.25;;;10.68;100.00
3917;BME280;1973;50.518;7.318;2023-03-19T06:23:57;100641.19;;;10.69;100.00
3917;BME280;1973;50.518;7.318;2023-03-19T06:26:24;100639.91;;;10.72;100.00
3917;BME280;1973;50.518;7.318;2023-03-19T06:28:51;100644.34;;;10.73;100.00
3917;BME280;1973;50.518;7.318;2023-03-19T06:31:18;100648.16;;;10.79;100.00
3917;BME280;1973;50.518;7.318;2023-03-19T06:33:45;100638.59;;;10.81;100.00
3917;BME280;1973;50.518;7.318;2023-03-19T06:36:11;100649.78;;;10.86;100.00
3917;BME280;1973;50.518;7.318;2023-03-19T06:38:38;100647.19;;;10.91;100.00
3917;BME280;1973;50.518;7.318;2023-03-19T06:41:04;100651.84;;;10.97;100.00
3917;BME280;1973;50.518;7.318;2023-03-19T06:43:31;100654.75;;;11.02;100.00
3917;BME280;1973;50.518;7.318;2023-03-19T06:46:03;100644.97;;;11.06;100.00
3917;BME280;1973;50.518;7.318;2023-03-19T06:48:30;100651.75;;;11.10;100.00
3917;BME280;1973;50.518;7.318;2023-03-19T06:50:56;100654.91;;;11.14;100.00
3917;BME280;1973;50.518;7.318;2023-03-19T06:53:23;100647.03;;;11.17;100.00
3917;BME280;1973;50.518;7.318;2023-03-19T06:55:59;100649.78;;;11.17;100.00
3917;BME280;1973;50.518;7.318;2023-03-19T06:58:25;100661.44;;;11.19;100.00
3917;BME280;1973;50.518;7.318;2023-03-19T07:00:52;100662.66;;;11.23;100.00
3917;BME280;1973;50.518;7.318;2023-03-19T07:03:19;100658.84;;;11.24;100.00
3917;BME280;1973;50.518;7.318;2023-03-19T07:05:48;100654.56;;;11.29;100.00
3917;BME280;1973;50.518;7.318;2023-03-19T07:08:15;100651.16;;;11.33;100.00
3917;BME280;1973;50.518;7.318;2023-03-19T07:10:42;100653.66;;;11.35;100.00
3917;BME280;1973;50.518;7.318;2023-03-19T07:13:08;100654.91;;;11.39;100.00
3917;BME280;1973;50.518;7.318;2023-03-19T07:15:35;100653.19;;;11.44;100.00
3917;BME280;1973;50.518;7.318;2023-03-19T07:18:02;100659.09;;;11.48;100.00
3917;BME280;1973;50.518;7.318;2023-03-19T07:20:29;100663.09;;;11.52;100.00
3917;BME280;1973;50.518;7.318;2023-03-19T07:22:55;100665.16;;;11.56;100.00
3917;BME280;1973;50.518;7.318;2023-03-19T07:25:22;100669.13;;;11.60;100.00
3917;BME280;1973;50.518;7.318;2023-03-19T07:27:48;100676.34;;;11.61;100.00
3917;BME280;1973;50.518;7.318;2023-03-19T07:30:15;100677.97;;;11.69;100.00
3917;BME280;1973;50.518;7.318;2023-03-19T07:32:42;100674.59;;;11.74;100.00
3917;BME280;1973;50.518;7.318;2023-03-19T07:35:09;100676.66;;;11.78;100.00
3917;BME280;1973;50.518;7.318;2023-03-19T07:37:36;100685.72;;;11.85;100.00
3917;BME280;1973;50.518;7.318;2023-03-19T07:40:03;100689.25;;;11.92;100.00
3917;BME280;1973;50.518;7.318;2023-03-19T07:42:30;100698.53;;;11.98;100.00
3917;BME280;1973;50.518;7.318;2023-03-19T07:44:57;100695.09;;;12.02;100.00
3917;BME280;1973;50.518;7.318;2023-03-19T07:47:23;100693.56;;;12.06;100.00
3917;BME280;1973;50.518;7.318;2023-03-19T07:49:55;100694.81;;;12.10;100.00
3917;BME280;1973;50.518;7.318;2023-03-19T07:52:22;100687.75;;;12.14;100.00
3917;BME280;1973;50.518;7.318;2023-03-19T07:54:48;100696.19;;;12.19;100.00
3917;BME280;1973;50.518;7.318;2023-03-19T07:57:15;100699.09;;;12.25;100.00
3917;BME280;1973;50.518;7.318;2023-03-19T07:59:42;100705.84;;;12.29;100.00
3917;BME280;1973;50.518;7.318;2023-03-19T08:02:10;100702.88;;;12.30;100.00
3917;BME280;1973;50.518;7.318;2023-03-19T08:04:37;100712.06;;;12.24;100.00
3917;BME280;1973;50.518;7.318;2023-03-19T08:07:03;100707.63;;;12.23;100.00
3917;BME280;1973;50.518;7.318;2023-03-19T08:09:30;100709.69;;;12.28;100.00
3917;BME280;1973;50.518;7.318;2023-03-19T08:11:57;100711.38;;;12.29;100.00
3917;BME280;1973;50.518;7.318;2023-03-19T08:14:24;100711.97;;;12.31;100.00
3917;BME280;1973;50.518;7.318;2023-03-19T08:16:50;100711.53;;;12.34;100.00
3917;BME280;1973;50.518;7.318;2023-03-19T08:19:17;100710.44;;;12.35;100.00
3917;BME280;1973;50.518;7.318;2023-03-19T08:21:43;100715.53;;;12.38;100.00
3917;BME280;1973;50.518;7.318;2023-03-19T08:24:10;100710.63;;;12.40;100.00
3917;BME280;1973;50.518;7.318;2023-03-19T08:26:37;100710.41;;;12.41;100.00
3917;BME280;1973;50.518;7.318;2023-03-19T08:29:03;100717.38;;;12.44;100.00
3917;BME280;1973;50.518;7.318;2023-03-19T08:31:30;100716.91;;;12.47;100.00
3917;BME280;1973;50.518;7.318;2023-03-19T08:33:56;100708.63;;;12.47;100.00
3917;BME280;1973;50.518;7.318;2023-03-19T08:36:25;100710.06;;;12.49;100.00
3917;BME280;1973;50.518;7.318;2023-03-19T08:38:52;100711.16;;;12.48;100.00
3917;BME280;1973;50.518;7.318;2023-03-19T08:41:20;100715.59;;;12.49;100.00
3917;BME280;1973;50.518;7.318;2023-03-19T08:43:47;100709.47;;;12.47;100.00
3917;BME280;1973;50.518;7.318;2023-03-19T08:46:13;100710.53;;;12.46;100.00
3917;BME280;1973;50.518;7.318;2023-03-19T08:48:40;100714.16;;;12.47;100.00
3917;BME280;1973;50.518;7.318;2023-03-19T08:51:07;100723.06;;;12.49;100.00
3917;BME280;1973;50.518;7.318;2023-03-19T08:53:35;100724.72;;;12.50;100.00
3917;BME280;1973;50.518;7.318;2023-03-19T08:56:04;100727.47;;;12.50;100.00
3917;BME280;1973;50.518;7.318;2023-03-19T08:58:31;100725.81;;;12.49;100.00
3917;BME280;1973;50.518;7.318;2023-03-19T09:01:06;100728.97;;;12.52;100.00
3917;BME280;1973;50.518;7.318;2023-03-19T09:03:36;100731.47;;;12.54;100.00
3917;BME280;1973;50.518;7.318;2023-03-19T09:06:04;100736.09;;;12.60;100.00
3917;BME280;1973;50.518;7.318;2023-03-19T09:08:31;100734.69;;;12.69;100.00
3917;BME280;1973;50.518;7.318;2023-03-19T09:10:58;100740.38;;;12.74;100.00
3917;BME280;1973;50.518;7.318;2023-03-19T09:13:24;100740.50;;;12.79;100.00
3917;BME280;1973;50.518;7.318;2023-03-19T09:15:52;100739.59;;;12.85;100.00
3917;BME280;1973;50.518;7.318;2023-03-19T09:18:19;100742.50;;;12.90;100.00
3917;BME280;1973;50.518;7.318;2023-03-19T09:20:46;100742.88;;;12.94;100.00
3917;BME280;1973;50.518;7.318;2023-03-19T09:23:12;100742.81;;;13.00;100.00
3917;BME280;1973;50.518;7.318;2023-03-19T09:25:39;100738.03;;;13.07;100.00
3917;BME280;1973;50.518;7.318;2023-03-19T09:28:06;100727.75;;;13.14;100.00
3917;BME280;1973;50.518;7.318;2023-03-19T09:30:32;100727.28;;;13.18;100.00
3917;BME280;1973;50.518;7.318;2023-03-19T09:32:59;100731.03;;;13.23;100.00
3917;BME280;1973;50.518;7.318;2023-03-19T09:35:25;100727.56;;;13.28;100.00
3917;BME280;1973;50.518;7.318;2023-03-19T09:37:57;100730.94;;;13.30;100.00
3917;BME280;1973;50.518;7.318;2023-03-19T09:40:27;100726.00;;;13.32;100.00
3917;BME280;1973;50.518;7.318;2023-03-19T09:45:29;100731.47;;;13.50;100.00
3917;BME280;1973;50.518;7.318;2023-03-19T09:47:59;100733.31;;;13.56;100.00
3917;BME280;1973;50.518;7.318;2023-03-19T09:50:30;100727.91;;;13.61;100.00
3917;BME280;1973;50.518;7.318;2023-03-19T09:53:35;100727.91;;;13.61;100.00
3917;BME280;1973;50.518;7.318;2023-03-19T09:56:09;100740.03;;;13.60;100.00
3917;BME280;1973;50.518;7.318;2023-03-19T09:58:38;100741.13;;;13.59;100.00
3917;BME280;1973;50.518;7.318;2023-03-19T10:01:05;100741.97;;;13.59;100.00
3917;BME280;1973;50.518;7.318;2023-03-19T10:03:42;100737.75;;;13.57;100.00
3917;BME280;1973;50.518;7.318;2023-03-19T10:06:33;100740.03;;;13.60;100.00
3917;BME280;1973;50.518;7.318;2023-03-19T10:14:51;100738.47;;;13.64;100.00
3917;BME280;1973;50.518;7.318;2023-03-19T10:17:28;100744.00;;;13.64;100.00
3917;BME280;1973;50.518;7.318;2023-03-19T10:20:02;100745.22;;;13.68;100.00
3917;BME280;1973;50.518;7.318;2023-03-19T10:22:42;100751.97;;;13.72;100.00
3917;BME280;1973;50.518;7.318;2023-03-19T10:25:15;100753.19;;;13.76;100.00
3917;BME280;1973;50.518;7.318;2023-03-19T10:27:45;100746.69;;;13.82;100.00
3917;BME280;1973;50.518;7.318;2023-03-19T10:30:14;100750.66;;;13.86;100.00
3917;BME280;1973;50.518;7.318;2023-03-19T10:32:50;100750.31;;;13.94;100.00
3917;BME280;1973;50.518;7.318;2023-03-19T10:35:22;100753.59;;;14.03;100.00
3917;BME280;1973;50.518;7.318;2023-03-19T10:37:49;100748.56;;;14.11;100.00
3917;BME280;1973;50.518;7.318;2023-03-19T10:40:23;100746.28;;;14.43;100.00
3917;BME280;1973;50.518;7.318;2023-03-19T10:45:30;100735.00;;;15.41;100.00
3917;BME280;1973;50.518;7.318;2023-03-19T10:47:57;100735.75;;;15.82;100.00
3917;BME280;1973;50.518;7.318;2023-03-19T10:50:34;100742.84;;;16.06;100.00
3917;BME280;1973;50.518;7.318;2023-03-19T10:53:06;100735.94;;;16.08;100.00
3917;BME280;1973;50.518;7.318;2023-03-19T10:55:33;100737.91;;;15.91;100.00
3917;BME280;1973;50.518;7.318;2023-03-19T10:58:15;100739.47;;;15.71;100.00
3917;BME280;1973;50.518;7.318;2023-03-19T11:06:32;100740.44;;;15.48;100.00
3917;BME280;1973;50.518;7.318;2023-03-19T11:10:19;100749.00;;;15.46;100.00
3917;BME280;1973;50.518;7.318;2023-03-19T11:12:55;100748.41;;;15.44;100.00
3917;BME280;1973;50.518;7.318;2023-03-19T11:15:28;100754.50;;;15.30;100.00
3917;BME280;1973;50.518;7.318;2023-03-19T11:18:06;100754.97;;;15.27;100.00
3917;BME280;1973;50.518;7.318;2023-03-19T11:20:36;100752.72;;;15.24;100.00
3917;BME280;1973;50.518;7.318;2023-03-19T11:23:17;100753.22;;;15.21;100.00
3917;BME280;1973;50.518;7.318;2023-03-19T11:25:52;100748.91;;;15.13;100.00
3917;BME280;1973;50.518;7.318;2023-03-19T11:37:59;100762.38;;;14.81;100.00
3917;BME280;1973;50.518;7.318;2023-03-19T11:40:54;100752.94;;;14.82;100.00
3917;BME280;1973;50.518;7.318;2023-03-19T11:43:43;100755.72;;;14.82;100.00
3917;BME280;1973;50.518;7.318;2023-03-19T12:19:37;100735.97;;;15.19;100.00
3917;BME280;1973;50.518;7.318;2023-03-19T12:22:20;100737.44;;;15.38;100.00
3917;BME280;1973;50.518;7.318;2023-03-19T12:33:43;100735.03;;;15.86;100.00
3917;BME280;1973;50.518;7.318;2023-03-19T12:36:19;100734.69;;;15.83;100.00
3917;BME280;1973;50.518;7.318;2023-03-19T12:38:51;100732.66;;;15.78;100.00
3917;BME280;1973;50.518;7.318;2023-03-19T12:41:24;100735.94;;;15.75;100.00
3917;BME280;1973;50.518;7.318;2023-03-19T12:44:02;100737.13;;;15.79;100.00
3917;BME280;1973;50.518;7.318;2023-03-19T12:47:02;100735.25;;;15.68;100.00
3917;BME280;1973;50.518;7.318;2023-03-19T12:49:36;100737.59;;;15.59;100.00
3917;BME280;1973;50.518;7.318;2023-03-19T12:52:27;100737.66;;;15.48;100.00
3917;BME280;1973;50.518;7.318;2023-03-19T12:55:21;100723.69;;;15.43;100.00
3917;BME280;1973;50.518;7.318;2023-03-19T12:57:58;100732.66;;;15.33;100.00
3917;BME280;1973;50.518;7.318;2023-03-19T13:00:55;100725.25;;;15.39;100.00
3917;BME280;1973;50.518;7.318;2023-03-19T13:03:38;100729.81;;;15.45;100.00
3917;BME280;1973;50.518;7.318;2023-03-19T13:06:34;100738.69;;;15.30;100.00
3917;BME280;1973;50.518;7.318;2023-03-19T13:09:28;100725.09;;;15.29;100.00
3917;BME280;1973;50.518;7.318;2023-03-19T13:12:12;100723.72;;;15.31;100.00
3917;BME280;1973;50.518;7.318;2023-03-19T13:17:58;100732.44;;;15.23;100.00
3917;BME280;1973;50.518;7.318;2023-03-19T13:23:26;100715.22;;;15.21;100.00
3917;BME280;1973;50.518;7.318;2023-03-19T13:25:55;100712.09;;;15.18;100.00
3917;BME280;1973;50.518;7.318;2023-03-19T13:28:31;100711.75;;;15.14;100.00
3917;BME280;1973;50.518;7.318;2023-03-19T13:33:27;100716.13;;;15.10;100.00
3917;BME280;1973;50.518;7.318;2023-03-19T13:35:54;100716.47;;;15.14;100.00
3917;BME280;1973;50.518;7.318;2023-03-19T13:38:27;100719.22;;;15.14;100.00
3917;BME280;1973;50.518;7.318;2023-03-19T13:40:58;100711.25;;;15.17;100.00
3917;BME280;1973;50.518;7.318;2023-03-19T13:57:01;100718.53;;;15.06;100.00
3917;BME280;1973;50.518;7.318;2023-03-19T13:59:35;100717.81;;;15.11;100.00
3917;BME280;1973;50.518;7.318;2023-03-19T14:04:54;100715.19;;;15.33;100.00
3917;BME280;1973;50.518;7.318;2023-03-19T14:07:26;100712.00;;;15.41;100.00
3917;BME280;1973;50.518;7.318;2023-03-19T14:12:31;100707.34;;;15.75;100.00
3917;BME280;1973;50.518;7.318;2023-03-19T14:17:36;100707.75;;;16.17;100.00
3917;BME280;1973;50.518;7.318;2023-03-19T14:20:27;100696.19;;;16.25;100.00
3917;BME280;1973;50.518;7.318;2023-03-19T14:26:05;100689.66;;;16.74;100.00
3917;BME280;1973;50.518;7.318;2023-03-19T14:31:52;100687.28;;;16.83;100.00
3917;BME280;1973;50.518;7.318;2023-03-19T14:34:21;100680.25;;;16.75;100.00
3917;BME280;1973;50.518;7.318;2023-03-19T14:37:22;100682.44;;;16.73;100.00
3917;BME280;1973;50.518;7.318;2023-03-19T14:40:02;100681.22;;;16.64;100.00
3917;BME280;1973;50.518;7.318;2023-03-19T14:42:56;100688.38;;;16.60;100.00
3917;BME280;1973;50.518;7.318;2023-03-19T14:45:58;100682.81;;;16.60;100.00
3917;BME280;1973;50.518;7.318;2023-03-19T14:48:54;100676.75;;;16.63;100.00
3917;BME280;1973;50.518;7.318;2023-03-19T14:51:57;100676.59;;;16.53;100.00
3917;BME280;1973;50.518;7.318;2023-03-19T14:54:30;100670.13;;;16.47;100.00
3917;BME280;1973;50.518;7.318;2023-03-19T14:57:05;100673.06;;;16.41;100.00
3917;BME280;1973;50.518;7.318;2023-03-19T14:59:36;100667.25;;;16.59;100.00
3917;BME280;1973;50.518;7.318;2023-03-19T15:02:05;100670.66;;;17.15;100.00
3917;BME280;1973;50.518;7.318;2023-03-19T15:04:44;100664.75;;;17.60;100.00